createdAt,value
2022-12-17T00:00:27.997Z,-0.4
2022-12-17T00:05:26.253Z,-0.4
2022-12-17T00:10:26.237Z,-0.4
2022-12-17T00:15:26.314Z,-0.4
2022-12-17T00:20:26.460Z,-0.4
2022-12-17T00:25:26.433Z,-0.3
2022-12-17T00:30:26.438Z,-0.3
2022-12-17T00:35:26.482Z,-0.3
2022-12-17T00:40:26.519Z,-0.3
2022-12-17T00:45:26.616Z,-0.3
2022-12-17T00:50:26.619Z,-0.3
2022-12-17T00:55:26.752Z,-0.3
2022-12-17T01:00:26.878Z,-0.3
2022-12-17T01:05:26.761Z,-0.3
2022-12-17T01:10:26.768Z,-0.3
2022-12-17T01:15:27.016Z,-0.3
2022-12-17T01:20:26.851Z,-0.3
2022-12-17T01:25:27.008Z,-0.3
2022-12-17T01:30:26.885Z,-0.2
2022-12-17T01:35:26.822Z,-0.2
2022-12-17T01:40:26.989Z,-0.2
2022-12-17T01:45:26.841Z,-0.2
2022-12-17T01:50:26.833Z,-0.2
2022-12-17T01:55:26.831Z,-0.2
2022-12-17T02:00:26.932Z,-0.2
2022-12-17T02:05:26.828Z,-0.2
2022-12-17T02:10:26.832Z,-0.2
2022-12-17T02:15:26.874Z,-0.2
2022-12-17T02:20:26.877Z,-0.2
2022-12-17T02:25:26.828Z,-0.2
2022-12-17T02:30:26.833Z,-0.2
2022-12-17T02:35:26.817Z,-0.1
2022-12-17T02:40:26.842Z,-0.2
2022-12-17T02:45:26.812Z,-0.2
2022-12-17T02:50:26.823Z,-0.1
2022-12-17T02:55:26.816Z,-0.2
2022-12-17T03:00:26.844Z,-0.2
2022-12-17T03:05:46.702Z,-0.1
2022-12-17T03:10:26.890Z,-0.1
2022-12-17T03:15:26.813Z,-0.1
2022-12-17T03:20:26.840Z,-0.1
2022-12-17T03:25:26.815Z,-0.1
2022-12-17T03:30:26.894Z,-0.1
2022-12-17T03:35:26.816Z,-0.1
2022-12-17T03:40:26.828Z,-0.1
2022-12-17T03:45:26.809Z,-0.1
2022-12-17T03:50:26.807Z,-0.1
2022-12-17T03:55:26.805Z,-0.1
2022-12-17T04:00:26.827Z,-0.1
2022-12-17T04:05:26.806Z,-0.1
2022-12-17T04:10:26.795Z,-0.1
2022-12-17T04:15:26.847Z,-0.1
2022-12-17T04:20:26.824Z,-0.1
2022-12-17T04:25:26.793Z,-0.1
2022-12-17T04:30:26.800Z,-0.1
2022-12-17T04:35:26.801Z,-0.2
2022-12-17T04:40:26.895Z,-0.2
2022-12-17T04:45:26.791Z,-0.2
2022-12-17T04:50:26.791Z,-0.2
2022-12-17T04:55:26.796Z,-0.2
2022-12-17T05:00:26.833Z,-0.2
2022-12-17T05:05:26.790Z,-0.2
2022-12-17T05:10:26.792Z,-0.2
2022-12-17T05:15:26.785Z,-0.2
2022-12-17T05:20:26.807Z,-0.2
2022-12-17T05:25:26.871Z,-0.2
2022-12-17T05:30:26.837Z,-0.2
2022-12-17T05:35:26.790Z,-0.2
2022-12-17T05:40:26.874Z,-0.2
2022-12-17T05:45:26.794Z,-0.2
2022-12-17T05:50:26.806Z,-0.2
2022-12-17T05:55:26.873Z,-0.2
2022-12-17T06:00:26.899Z,-0.2
2022-12-17T06:05:26.785Z,-0.2
2022-12-17T06:10:26.775Z,-0.2
2022-12-17T06:15:26.887Z,-0.3
2022-12-17T06:20:26.881Z,-0.3
2022-12-17T06:25:26.823Z,-0.3
2022-12-17T06:30:26.776Z,-0.3
2022-12-17T06:35:26.791Z,-0.3
2022-12-17T06:40:26.853Z,-0.3
2022-12-17T06:45:26.780Z,-0.3
2022-12-17T06:50:26.780Z,-0.3
2022-12-17T06:55:26.773Z,-0.3
2022-12-17T07:00:26.795Z,-0.4
2022-12-17T07:05:26.837Z,-0.4
2022-12-17T07:10:26.764Z,-0.4
2022-12-17T07:15:26.787Z,-0.4
2022-12-17T07:20:26.792Z,-0.4
2022-12-17T07:25:26.764Z,-0.4
2022-12-17T07:30:26.766Z,-0.4
2022-12-17T07:35:26.769Z,-0.4
2022-12-17T07:40:26.902Z,-0.4
2022-12-17T07:45:26.823Z,-0.5
2022-12-17T07:50:26.869Z,-0.5
2022-12-17T07:55:26.838Z,-0.5
2022-12-17T08:00:26.876Z,-0.6
2022-12-17T08:05:26.900Z,-0.6
2022-12-17T08:10:26.790Z,-0.6
2022-12-17T08:15:26.794Z,-0.6
2022-12-17T08:20:27.072Z,-0.6
2022-12-17T08:25:26.828Z,-0.6
2022-12-17T08:30:26.958Z,-0.7
2022-12-17T08:35:26.872Z,-0.7
2022-12-17T08:40:26.900Z,-0.7
2022-12-17T08:45:26.986Z,-0.7
2022-12-17T08:50:26.978Z,-0.8
2022-12-17T08:55:26.912Z,-0.8
2022-12-17T09:00:26.959Z,-0.8
2022-12-17T09:05:26.937Z,-0.8
2022-12-17T09:10:27.010Z,-0.8
2022-12-17T09:15:27.084Z,-0.8
2022-12-17T09:20:29.366Z,-0.8
2022-12-17T09:25:27.082Z,-0.8
2022-12-17T09:30:27.183Z,-0.8
2022-12-17T09:35:27.036Z,-0.8
2022-12-17T09:40:27.156Z,-0.8
2022-12-17T09:45:27.066Z,-0.8
2022-12-17T09:50:27.069Z,-0.8
2022-12-17T09:55:27.071Z,-0.8
2022-12-17T10:00:27.122Z,-0.8
2022-12-17T10:05:27.148Z,-0.8
2022-12-17T10:10:27.126Z,-0.8
2022-12-17T10:15:27.205Z,-0.8
2022-12-17T10:20:27.165Z,-0.8
2022-12-17T10:25:27.316Z,-0.8
2022-12-17T10:30:27.263Z,-0.8
2022-12-17T10:35:27.340Z,-0.8
2022-12-17T10:40:27.352Z,-0.8
2022-12-17T10:45:27.439Z,-0.8
2022-12-17T10:50:27.361Z,-0.9
2022-12-17T10:55:27.461Z,-0.9
2022-12-17T11:00:27.552Z,-0.9
2022-12-17T11:05:27.505Z,-0.9
2022-12-17T11:10:27.554Z,-0.9
2022-12-17T11:15:27.616Z,-0.9
2022-12-17T11:20:27.639Z,-0.9
2022-12-17T11:25:27.753Z,-0.9
2022-12-17T11:30:30.709Z,-0.9
2022-12-17T11:35:27.740Z,-0.9
2022-12-17T11:40:27.852Z,-0.9
2022-12-17T11:45:27.793Z,-0.9
2022-12-17T11:50:27.837Z,-0.9
2022-12-17T11:55:27.808Z,-0.9
2022-12-17T12:00:27.880Z,-0.9
2022-12-17T12:05:27.839Z,-0.9
2022-12-17T12:10:27.844Z,-0.9
2022-12-17T12:15:27.868Z,-0.9
2022-12-17T12:20:27.908Z,-0.9
2022-12-17T12:25:27.908Z,-0.9
2022-12-17T12:30:27.917Z,-0.9
2022-12-17T12:35:27.929Z,-0.9
2022-12-17T12:40:28.243Z,-0.9
2022-12-17T12:45:28.014Z,-0.9
2022-12-17T12:50:27.949Z,-0.9
2022-12-17T12:55:27.967Z,-0.9
2022-12-17T13:00:28.021Z,-0.9
2022-12-17T13:05:28.034Z,-0.9
2022-12-17T13:10:28.084Z,-0.9
2022-12-17T13:15:32.849Z,-0.9
2022-12-17T13:20:28.197Z,-0.9
2022-12-17T13:25:28.189Z,-0.9
2022-12-17T13:30:28.246Z,-0.9
2022-12-17T13:35:28.318Z,-0.9
2022-12-17T13:40:28.408Z,-0.9
2022-12-17T13:45:28.285Z,-0.9
2022-12-17T13:50:36.576Z,-0.9
2022-12-17T13:55:28.263Z,-0.9
2022-12-17T14:00:28.303Z,-0.9
2022-12-17T14:05:28.242Z,-0.9
2022-12-17T14:10:28.338Z,-0.9
2022-12-17T14:15:28.241Z,-1
2022-12-17T14:20:28.270Z,-1
2022-12-17T14:25:28.231Z,-1
2022-12-17T14:30:28.251Z,-1
2022-12-17T14:35:28.229Z,-1
2022-12-17T14:40:28.747Z,-1
2022-12-17T14:45:28.370Z,-1.1
2022-12-17T14:50:28.291Z,-1.1
2022-12-17T14:55:28.244Z,-1.1
2022-12-17T15:00:28.260Z,-1.1
2022-12-17T15:05:28.242Z,-1.1
2022-12-17T15:10:28.321Z,-1.1
2022-12-17T15:15:28.285Z,-1.1
2022-12-17T15:20:28.262Z,-1.1
2022-12-17T15:25:28.230Z,-1.1
2022-12-17T15:30:28.294Z,-1.1
2022-12-17T15:35:28.223Z,-1.1
2022-12-17T15:40:28.287Z,-1.2
2022-12-17T15:45:28.319Z,-1.2
2022-12-17T15:50:28.246Z,-1.2
2022-12-17T15:55:28.220Z,-1.2
2022-12-17T16:00:28.422Z,-1.2
2022-12-17T16:05:28.234Z,-1.2
2022-12-17T16:10:28.249Z,-1.3
2022-12-17T16:15:28.292Z,-1.3
2022-12-17T16:20:28.260Z,-1.3
2022-12-17T16:25:28.231Z,-1.3
2022-12-17T16:30:28.217Z,-1.3
2022-12-17T16:35:28.214Z,-1.3
2022-12-17T16:40:28.345Z,-1.3
2022-12-17T16:45:28.210Z,-1.4
2022-12-17T16:50:28.230Z,-1.4
2022-12-17T16:55:28.204Z,-1.4
2022-12-17T17:00:28.394Z,-1.4
2022-12-17T17:05:28.213Z,-1.4
2022-12-17T17:10:28.201Z,-1.4
2022-12-17T17:15:28.197Z,-1.4
2022-12-17T17:20:28.301Z,-1.4
2022-12-17T17:25:44.188Z,-1.4
2022-12-17T17:30:28.343Z,-1.4
2022-12-17T17:35:28.189Z,-1.4
2022-12-17T17:40:28.330Z,-1.4
2022-12-17T17:45:28.208Z,-1.4
2022-12-17T17:50:28.278Z,-1.4
2022-12-17T17:55:28.441Z,-1.4
2022-12-17T18:00:28.252Z,-1.4
2022-12-17T18:05:28.183Z,-1.4
2022-12-17T18:10:28.250Z,-1.5
2022-12-17T18:15:28.193Z,-1.5
2022-12-17T18:20:28.230Z,-1.4
2022-12-17T18:25:30.478Z,-1.5
2022-12-17T18:30:28.200Z,-1.5
